Time;durP1;ratioP1;P1;durP2;ratioP2;P2;SDS_P1;SDS_P2;PMS_P1;PMS_P2;Temp;Humidity;BMP_temperature;BMP_pressure;BME280_temperature;BME280_humidity;BME280_pressure;Samples;Min_cycle;Max_cycle;Signal;HPM_P1;HPM_P2
2022/06/09 00:01:26;;;;;;;26.17;8.93;;;14.60;99.90;;;;;;5082283;28;20229;-78
2022/06/09 00:04:12;;;;;;;21.00;7.40;;;14.60;99.90;;;;;;5080013;28;20204;-77
2022/06/09 00:06:44;;;;;;;25.63;7.73;;;14.60;99.90;;;;;;5079167;28;20241;-77
2022/06/09 00:09:11;;;;;;;26.80;8.93;;;14.50;99.90;;;;;;5083100;28;20236;-77
2022/06/09 00:11:41;;;;;;;27.10;8.13;;;14.50;99.90;;;;;;5083868;28;20200;-77
2022/06/09 00:14:08;;;;;;;22.00;9.00;;;14.30;99.90;;;;;;5073555;28;20236;-77
2022/06/09 00:16:36;;;;;;;32.23;9.20;;;14.50;99.90;;;;;;5084733;28;20201;-77
2022/06/09 00:19:05;;;;;;;24.33;8.93;;;14.40;99.90;;;;;;5084501;28;20218;-78
2022/06/09 00:21:33;;;;;;;27.97;9.23;;;14.40;99.90;;;;;;5082811;28;20215;-78
2022/06/09 00:24:01;;;;;;;34.03;9.77;;;14.40;99.90;;;;;;5085515;28;20703;-77
2022/06/09 00:26:29;;;;;;;25.17;8.67;;;14.40;99.90;;;;;;5082975;28;20267;-76
2022/06/09 00:28:56;;;;;;;30.07;10.07;;;14.40;99.90;;;;;;5079004;28;20288;-78
2022/06/09 00:31:24;;;;;;;25.73;10.00;;;14.40;99.90;;;;;;5075961;28;20212;-78
2022/06/09 00:33:51;;;;;;;22.87;7.53;;;14.40;99.90;;;;;;5085036;28;20576;-77
2022/06/09 00:36:18;;;;;;;25.20;8.83;;;14.40;99.90;;;;;;5076342;28;20201;-79
2022/06/09 00:38:46;;;;;;;35.93;8.80;;;14.30;99.90;;;;;;5087933;28;20257;-77
2022/06/09 00:41:13;;;;;;;26.67;7.70;;;14.40;99.90;;;;;;5081172;28;20684;-76
2022/06/09 00:43:44;;;;;;;33.63;9.27;;;14.40;99.90;;;;;;5081501;28;20678;-78
2022/06/09 00:46:17;;;;;;;24.63;8.53;;;14.40;99.90;;;;;;5081457;28;20270;-76
2022/06/09 00:48:48;;;;;;;23.70;7.87;;;14.40;99.90;;;;;;5081467;28;20220;-77
2022/06/09 00:51:20;;;;;;;32.70;9.27;;;14.40;99.90;;;;;;5074006;28;20193;-77
2022/06/09 00:53:53;;;;;;;29.30;7.87;;;14.30;99.90;;;;;;5077715;28;20231;-77
2022/06/09 00:56:21;;;;;;;27.77;8.73;;;14.40;99.90;;;;;;5082594;28;20273;-78
2022/06/09 00:58:51;;;;;;;24.47;8.70;;;14.40;99.90;;;;;;5081072;28;20199;-79
2022/06/09 01:01:20;;;;;;;29.77;9.57;;;14.40;99.90;;;;;;5081951;28;20574;-77
2022/06/09 01:04:09;;;;;;;21.03;8.87;;;14.40;99.90;;;;;;5078248;28;20651;-77
2022/06/09 01:06:42;;;;;;;25.83;8.30;;;14.30;99.90;;;;;;5074323;28;20328;-77
2022/06/09 01:09:19;;;;;;;30.50;9.63;;;14.40;99.90;;;;;;5083041;28;20764;-77
2022/06/09 01:11:47;;;;;;;24.70;8.53;;;14.40;99.90;;;;;;5081352;28;20287;-77
2022/06/09 01:14:17;;;;;;;26.10;8.70;;;14.30;99.90;;;;;;5077791;28;20208;-77
2022/06/09 01:17:04;;;;;;;27.73;8.43;;;14.30;99.90;;;;;;5079930;28;20199;-77
2022/06/09 01:19:48;;;;;;;27.10;8.23;;;14.30;99.90;;;;;;5078622;28;20204;-77
2022/06/09 01:22:55;;;;;;;18.03;7.87;;;14.30;99.90;;;;;;5077116;28;20823;-77
2022/06/09 01:25:49;;;;;;;33.47;10.47;;;14.30;99.90;;;;;;5083389;28;20219;-77
2022/06/09 01:28:34;;;;;;;25.30;8.90;;;14.20;99.90;;;;;;5078238;28;20223;-76
2022/06/09 01:31:09;;;;;;;21.20;8.87;;;14.20;99.90;;;;;;5090628;28;20204;-77
2022/06/09 01:33:56;;;;;;;25.13;9.53;;;14.30;99.90;;;;;;5077240;28;20204;-77
2022/06/09 01:36:33;;;;;;;30.53;9.87;;;14.30;99.90;;;;;;5075544;28;20200;-78
2022/06/09 01:39:03;;;;;;;24.63;9.27;;;14.30;99.90;;;;;;5081599;28;20559;-77
2022/06/09 01:41:30;;;;;;;27.13;9.00;;;14.30;99.90;;;;;;5079949;28;20625;-76
2022/06/09 01:43:57;;;;;;;25.53;8.57;;;14.30;99.90;;;;;;5073379;28;20616;-77
2022/06/09 01:46:34;;;;;;;28.20;9.87;;;14.30;99.90;;;;;;5081866;28;20718;-77
2022/06/09 01:49:24;;;;;;;30.20;11.17;;;14.20;99.90;;;;;;5077604;28;20230;-78
2022/06/09 01:51:52;;;;;;;26.57;9.73;;;14.20;99.90;;;;;;5093953;28;20253;-76
2022/06/09 01:54:27;;;;;;;31.57;11.20;;;14.20;99.90;;;;;;5080578;28;20231;-79
2022/06/09 01:57:04;;;;;;;39.40;12.87;;;14.20;99.90;;;;;;5078936;28;20207;-77
2022/06/09 01:59:56;;;;;;;35.13;12.20;;;14.20;99.90;;;;;;5081552;28;20212;-77
2022/06/09 02:02:35;;;;;;;45.47;13.47;;;14.20;99.90;;;;;;5075782;28;20619;-77
2022/06/09 02:05:09;;;;;;;40.03;13.70;;;14.10;99.90;;;;;;5082262;28;20631;-78
2022/06/09 02:07:39;;;;;;;39.70;14.37;;;14.10;99.90;;;;;;5083598;28;20204;-77
2022/06/09 02:10:30;;;;;;;40.20;14.73;;;14.10;99.90;;;;;;5082742;28;20296;-77
2022/06/09 02:13:04;;;;;;;48.67;15.37;;;14.10;99.90;;;;;;5080417;28;20191;-78
2022/06/09 02:15:38;;;;;;;41.77;14.87;;;14.10;99.90;;;;;;5077099;28;20616;-77
2022/06/09 02:18:11;;;;;;;43.77;15.47;;;14.10;99.90;;;;;;5079829;28;20204;-77
2022/06/09 02:20:42;;;;;;;39.10;14.73;;;14.10;99.90;;;;;;5079575;28;20200;-77
2022/06/09 02:23:11;;;;;;;41.83;16.57;;;14.10;99.90;;;;;;5081260;28;20293;-76
2022/06/09 02:25:39;;;;;;;37.30;14.50;;;14.10;99.90;;;;;;5081313;28;20212;-77
2022/06/09 02:28:07;;;;;;;39.87;15.77;;;14.10;99.90;;;;;;5078116;28;20253;-76
2022/06/09 02:30:35;;;;;;;37.63;16.00;;;14.10;99.90;;;;;;5080415;28;20571;-77
2022/06/09 02:33:19;;;;;;;35.93;16.27;;;14.10;99.90;;;;;;5077541;28;20201;-78
2022/06/09 02:35:50;;;;;;;44.07;16.40;;;14.10;99.90;;;;;;5078267;28;20227;-79
2022/06/09 02:38:19;;;;;;;44.07;17.20;;;14.10;99.90;;;;;;5077501;28;20204;-77
2022/06/09 02:40:46;;;;;;;36.47;16.23;;;14.10;99.90;;;;;;5084975;28;20246;-77
2022/06/09 02:43:13;;;;;;;38.07;16.33;;;14.10;99.90;;;;;;5080311;28;20266;-77
2022/06/09 02:45:41;;;;;;;46.63;17.53;;;14.10;99.90;;;;;;5081061;28;20192;-77
2022/06/09 02:48:08;;;;;;;37.00;16.63;;;14.10;99.90;;;;;;5081379;28;20212;-79
2022/06/09 02:50:36;;;;;;;47.73;17.30;;;14.00;99.90;;;;;;5078481;28;20212;-78
2022/06/09 02:53:03;;;;;;;28.43;15.13;;;14.10;99.90;;;;;;5082967;28;20537;-77
2022/06/09 02:55:31;;;;;;;40.80;17.77;;;14.00;99.90;;;;;;5084642;28;20927;-77
2022/06/09 02:57:57;;;;;;;37.87;17.10;;;14.00;99.90;;;;;;5081347;28;20257;-77
2022/06/09 03:00:24;;;;;;;36.83;17.47;;;14.00;99.90;;;;;;5082920;28;20635;-77
2022/06/09 03:03:01;;;;;;;44.93;16.90;;;14.00;99.90;;;;;;5080291;28;20206;-77
2022/06/09 03:05:30;;;;;;;40.10;16.30;;;14.00;99.90;;;;;;5081642;28;20196;-77
2022/06/09 03:07:57;;;;;;;43.93;15.80;;;14.10;99.90;;;;;;5081722;28;20204;-77
2022/06/09 03:10:25;;;;;;;32.70;15.00;;;13.90;99.90;;;;;;5083301;28;20236;-77
2022/06/09 03:12:53;;;;;;;28.80;14.77;;;13.90;99.90;;;;;;5083732;28;20299;-76
2022/06/09 03:15:22;;;;;;;39.47;15.10;;;13.90;99.90;;;;;;5072403;28;20209;-77
2022/06/09 03:17:50;;;;;;;35.77;15.87;;;13.90;99.90;;;;;;5082289;28;20211;-77
2022/06/09 03:20:21;;;;;;;34.43;15.20;;;13.90;99.90;;;;;;5081464;28;20694;-77
2022/06/09 03:22:48;;;;;;;29.97;15.30;;;13.90;99.90;;;;;;5083312;28;20897;-76
2022/06/09 03:25:15;;;;;;;32.73;15.10;;;13.90;99.90;;;;;;5081144;28;20223;-76
2022/06/09 03:27:42;;;;;;;32.93;14.37;;;13.90;99.90;;;;;;5080334;28;20311;-77
2022/06/09 03:30:10;;;;;;;30.27;14.83;;;13.80;99.90;;;;;;5080191;28;20384;-77
2022/06/09 03:32:37;;;;;;;29.63;14.27;;;13.80;99.90;;;;;;5083813;28;20544;-78
2022/06/09 03:35:05;;;;;;;34.87;15.53;;;13.80;99.90;;;;;;5076707;28;20218;-76
2022/06/09 03:37:32;;;;;;;32.03;14.40;;;13.80;99.90;;;;;;5082357;28;20211;-77
2022/06/09 03:39:59;;;;;;;37.00;15.80;;;13.90;99.90;;;;;;5082128;28;20238;-79
2022/06/09 03:42:26;;;;;;;31.30;14.27;;;13.80;99.90;;;;;;5086846;28;20834;-77
2022/06/09 03:44:56;;;;;;;27.33;14.47;;;13.70;99.90;;;;;;5079651;28;20233;-77
2022/06/09 03:47:24;;;;;;;34.20;15.00;;;13.70;99.90;;;;;;5077725;28;20274;-78
2022/06/09 03:49:51;;;;;;;32.00;14.07;;;13.70;99.90;;;;;;5077585;28;20614;-78
2022/06/09 03:52:18;;;;;;;33.40;14.43;;;13.80;99.90;;;;;;5077359;28;20261;-77
2022/06/09 03:54:45;;;;;;;35.23;14.47;;;13.70;99.90;;;;;;5080376;28;20275;-77
2022/06/09 03:57:11;;;;;;;27.83;14.60;;;13.70;99.90;;;;;;5079982;28;20205;-76
2022/06/09 03:59:38;;;;;;;32.90;14.80;;;13.70;99.90;;;;;;5079211;28;20256;-76
2022/06/09 04:02:08;;;;;;;25.57;14.47;;;13.70;99.90;;;;;;5079228;28;20286;-77
2022/06/09 04:04:36;;;;;;;32.83;13.77;;;13.70;99.90;;;;;;5082080;28;20335;-78
2022/06/09 04:07:03;;;;;;;29.57;14.30;;;13.70;99.90;;;;;;5081032;28;20637;-76
2022/06/09 04:09:30;;;;;;;32.60;14.00;;;13.70;99.90;;;;;;5074198;28;20305;-77
2022/06/09 04:11:57;;;;;;;32.37;13.57;;;13.80;99.90;;;;;;5084025;28;20261;-76
2022/06/09 04:14:23;;;;;;;29.17;13.03;;;13.80;99.90;;;;;;5080112;28;20205;-78
2022/06/09 04:16:55;;;;;;;26.83;13.60;;;13.70;99.90;;;;;;5081889;28;20636;-77
2022/06/09 04:19:23;;;;;;;30.90;13.83;;;13.70;99.90;;;;;;5076936;28;20751;-78
2022/06/09 04:21:50;;;;;;;37.50;13.03;;;13.70;99.90;;;;;;5082431;28;20200;-78
2022/06/09 04:24:18;;;;;;;29.43;14.07;;;13.70;99.90;;;;;;5080786;28;20219;-76
2022/06/09 04:26:46;;;;;;;25.00;12.30;;;13.80;99.90;;;;;;5087805;28;20765;-78
2022/06/09 04:29:14;;;;;;;27.03;12.27;;;13.80;99.90;;;;;;5082491;28;20255;-77
2022/06/09 04:31:42;;;;;;;29.30;13.10;;;13.80;99.90;;;;;;5077189;28;20208;-78
2022/06/09 04:34:09;;;;;;;23.20;12.17;;;13.80;99.90;;;;;;5079681;28;20317;-77
2022/06/09 04:36:36;;;;;;;23.40;13.07;;;13.80;99.90;;;;;;5074389;28;20349;-78
2022/06/09 04:39:05;;;;;;;22.80;13.77;;;13.90;99.90;;;;;;5084405;28;20644;-77
2022/06/09 04:41:32;;;;;;;21.93;12.17;;;13.80;99.90;;;;;;5080442;28;20672;-78
2022/06/09 04:43:59;;;;;;;22.40;12.13;;;13.80;99.90;;;;;;5083508;28;20631;-77
2022/06/09 04:46:27;;;;;;;28.30;13.50;;;13.80;99.90;;;;;;5081063;28;20254;-78
2022/06/09 04:48:54;;;;;;;27.63;12.33;;;13.90;99.90;;;;;;5076196;28;20853;-77
2022/06/09 04:51:22;;;;;;;20.50;11.23;;;13.90;99.90;;;;;;5078285;28;20204;-78
2022/06/09 04:53:49;;;;;;;26.03;11.67;;;13.90;99.90;;;;;;5081022;28;20281;-78
2022/06/09 04:56:17;;;;;;;20.63;11.07;;;14.00;99.90;;;;;;5075848;28;20265;-76
2022/06/09 04:58:45;;;;;;;23.73;11.70;;;14.10;99.90;;;;;;5075915;28;20204;-78
2022/06/09 05:01:18;;;;;;;17.67;11.33;;;14.20;99.90;;;;;;5081100;28;20196;-77
2022/06/09 05:03:47;;;;;;;16.47;10.47;;;14.20;99.90;;;;;;5079583;28;20204;-78
2022/06/09 05:06:14;;;;;;;21.00;10.17;;;14.20;99.90;;;;;;5079598;28;20718;-77
2022/06/09 05:08:40;;;;;;;19.33;9.10;;;14.20;99.90;;;;;;5087307;28;20565;-77
2022/06/09 05:11:08;;;;;;;16.50;10.00;;;14.20;99.90;;;;;;5084595;28;20270;-78
2022/06/09 05:13:35;;;;;;;17.40;9.43;;;14.30;99.90;;;;;;5083813;28;20201;-77
2022/06/09 05:16:02;;;;;;;14.67;9.17;;;14.40;99.90;;;;;;5085283;28;20659;-78
2022/06/09 05:18:31;;;;;;;23.00;9.57;;;14.40;99.90;;;;;;5078481;28;20200;-77
2022/06/09 05:20:59;;;;;;;14.90;9.03;;;14.50;99.90;;;;;;5084994;28;20271;-79
2022/06/09 05:23:27;;;;;;;14.40;8.37;;;14.60;99.90;;;;;;5081550;28;20246;-78
2022/06/09 05:25:56;;;;;;;14.50;6.90;;;14.70;99.90;;;;;;5085942;28;20223;-79
2022/06/09 05:28:25;;;;;;;10.37;5.23;;;15.40;99.90;;;;;;5072111;28;20201;-78
2022/06/09 05:30:52;;;;;;;9.40;4.55;;;16.30;99.90;;;;;;5078524;28;20313;-78
2022/06/09 05:33:20;;;;;;;10.02;4.18;;;17.30;99.90;;;;;;5083422;28;20291;-77
2022/06/09 05:35:47;;;;;;;7.07;3.40;;;18.30;99.90;;;;;;5078477;28;20590;-79
2022/06/09 05:46:40;;;;;;;7.32;3.30;;;21.40;99.90;;;;;;5078024;28;20219;-80
2022/06/09 05:49:13;;;;;;;4.57;2.60;;;22.10;99.90;;;;;;5074377;28;20323;-80
2022/06/09 05:51:40;;;;;;;7.10;2.90;;;22.60;99.90;;;;;;5079960;28;20208;-79
2022/06/09 05:54:07;;;;;;;3.70;2.42;;;22.80;99.90;;;;;;5080198;28;20324;-80
2022/06/09 05:56:34;;;;;;;6.20;3.15;;;23.20;99.90;;;;;;5073535;28;20208;-78
2022/06/09 05:59:01;;;;;;;6.15;3.05;;;23.60;99.90;;;;;;5079457;28;20253;-80
2022/06/09 06:01:28;;;;;;;4.13;2.60;;;23.90;99.90;;;;;;5075180;28;20266;-79
2022/06/09 06:03:55;;;;;;;7.10;2.47;;;23.90;99.90;;;;;;5072698;28;20209;-78
2022/06/09 06:06:34;;;;;;;4.25;2.45;;;24.20;99.90;;;;;;5071655;28;20619;-78
2022/06/09 06:09:11;;;;;;;9.23;2.50;;;24.40;99.90;;;;;;5074251;28;20322;-80
2022/06/09 06:11:39;;;;;;;4.57;2.20;;;24.30;99.90;;;;;;5075519;28;20219;-80
2022/06/09 06:14:08;;;;;;;5.38;2.17;;;24.30;99.90;;;;;;5078531;28;20717;-80
2022/06/09 06:16:36;;;;;;;7.32;2.20;;;24.60;99.90;;;;;;5081170;28;20211;-79
2022/06/09 06:19:05;;;;;;;7.45;2.25;;;24.90;99.90;;;;;;5075744;28;20216;-78
2022/06/09 06:21:34;;;;;;;5.88;2.13;;;25.20;99.90;;;;;;5077382;28;20204;-79
2022/06/09 06:24:01;;;;;;;4.15;2.33;;;25.20;99.90;;;;;;5074879;28;20206;-78
2022/06/09 06:26:28;;;;;;;4.40;1.88;;;25.20;99.90;;;;;;5077045;28;20208;-78
2022/06/09 06:28:55;;;;;;;5.05;2.10;;;25.40;99.90;;;;;;5074916;28;20730;-79
2022/06/09 06:31:22;;;;;;;5.13;1.90;;;25.70;99.90;;;;;;5079359;28;20236;-79
2022/06/09 06:33:49;;;;;;;5.00;1.77;;;26.00;99.90;;;;;;5076070;28;20197;-82
2022/06/09 06:36:16;;;;;;;3.75;1.58;;;26.10;99.90;;;;;;5077018;28;20272;-80
2022/06/09 06:38:43;;;;;;;5.93;1.92;;;26.00;99.90;;;;;;5074685;28;20634;-80
2022/06/09 06:41:12;;;;;;;4.75;1.48;;;26.20;99.90;;;;;;5077667;28;20225;-78
2022/06/09 06:43:43;;;;;;;4.22;1.70;;;26.40;99.90;;;;;;5068790;28;20208;-79
2022/06/09 06:46:10;;;;;;;4.75;1.58;;;26.40;99.90;;;;;;5078190;28;20743;-80
2022/06/09 06:48:37;;;;;;;4.78;1.60;;;26.80;99.90;;;;;;5074171;28;20212;-78
2022/06/09 06:51:05;;;;;;;3.58;1.77;;;26.70;99.90;;;;;;5079780;28;20292;-80
2022/06/09 06:53:36;;;;;;;4.10;1.67;;;26.60;99.90;;;;;;5078501;28;20827;-79
2022/06/09 06:56:03;;;;;;;4.88;1.90;;;26.80;99.90;;;;;;5076810;28;20232;-79
2022/06/09 06:58:31;;;;;;;4.78;2.05;;;26.90;99.90;;;;;;5078191;28;20502;-84
2022/06/09 07:00:59;;;;;;;6.68;1.90;;;27.00;99.90;;;;;;5075509;28;20663;-80
2022/06/09 07:03:26;;;;;;;4.85;1.42;;;27.00;99.90;;;;;;5079066;28;20541;-79
2022/06/09 07:06:01;;;;;;;4.72;1.42;;;27.00;99.90;;;;;;5076416;28;20291;-81
2022/06/09 07:08:28;;;;;;;4.25;1.45;;;26.90;99.90;;;;;;5072566;28;20233;-79
2022/06/09 07:10:56;;;;;;;3.83;1.60;;;27.00;99.90;;;;;;5073113;28;20305;-79
2022/06/09 07:13:23;;;;;;;4.72;1.80;;;27.20;99.90;;;;;;5071317;28;20250;-78
2022/06/09 07:15:50;;;;;;;4.03;1.50;;;27.40;99.90;;;;;;5072087;28;20209;-80
2022/06/09 07:18:22;;;;;;;5.50;1.95;;;27.30;99.90;;;;;;5073170;28;20834;-78
2022/06/09 07:20:50;;;;;;;2.72;1.48;;;27.30;99.90;;;;;;5076718;28;20302;-78
2022/06/09 07:23:17;;;;;;;2.63;1.50;;;26.80;99.90;;;;;;5069463;28;20208;-78
2022/06/09 07:25:44;;;;;;;3.53;1.63;;;26.80;99.90;;;;;;5072924;28;20220;-80
2022/06/09 07:28:11;;;;;;;2.38;1.58;;;26.80;99.90;;;;;;5072670;28;20204;-79
2022/06/09 07:30:38;;;;;;;3.40;1.45;;;26.60;99.90;;;;;;5072744;28;20315;-80
2022/06/09 07:33:05;;;;;;;4.88;1.80;;;26.30;99.90;;;;;;5075011;28;20602;-78
2022/06/09 07:35:35;;;;;;;3.40;1.73;;;26.40;99.90;;;;;;5085465;28;20208;-78
2022/06/09 07:38:04;;;;;;;4.47;2.10;;;26.90;99.90;;;;;;5078901;28;20270;-79
2022/06/09 07:40:33;;;;;;;5.28;1.85;;;26.80;99.90;;;;;;5072427;28;20227;-77
2022/06/09 07:43:01;;;;;;;4.05;1.80;;;26.40;99.90;;;;;;5072766;28;20253;-78
2022/06/09 07:45:29;;;;;;;4.38;1.58;;;25.90;99.90;;;;;;5076642;28;20575;-78
2022/06/09 07:47:57;;;;;;;4.45;1.85;;;25.80;99.90;;;;;;5076521;28;20231;-77
2022/06/09 07:50:24;;;;;;;5.53;1.63;;;25.80;99.90;;;;;;5073785;28;20243;-77
2022/06/09 07:52:51;;;;;;;5.53;1.88;;;25.90;99.90;;;;;;5083149;28;20210;-78
2022/06/09 07:55:18;;;;;;;5.05;2.00;;;26.20;99.90;;;;;;5072929;28;20226;-78
2022/06/09 07:57:44;;;;;;;4.00;1.70;;;26.50;99.90;;;;;;5074638;28;20205;-78
2022/06/09 08:00:13;;;;;;;4.43;1.80;;;26.60;99.90;;;;;;5077359;28;20230;-76
2022/06/09 08:02:42;;;;;;;8.20;1.98;;;26.40;99.90;;;;;;5077087;28;20208;-77
2022/06/09 08:05:11;;;;;;;3.00;1.52;;;26.30;99.90;;;;;;5074687;28;20542;-77
2022/06/09 08:07:38;;;;;;;6.22;1.95;;;26.10;99.90;;;;;;5073067;28;20582;-76
2022/06/09 08:10:06;;;;;;;3.90;1.65;;;26.10;99.90;;;;;;5073366;28;20236;-77
2022/06/09 08:12:34;;;;;;;5.68;1.40;;;26.20;99.90;;;;;;5082159;28;20283;-79
2022/06/09 08:15:01;;;;;;;3.72;1.58;;;25.90;99.90;;;;;;5072956;28;20853;-81
2022/06/09 08:17:28;;;;;;;4.93;1.95;;;25.70;99.90;;;;;;5080150;28;20700;-81
2022/06/09 08:19:55;;;;;;;3.10;1.58;;;26.00;99.90;;;;;;5076569;28;20212;-77
2022/06/09 08:22:22;;;;;;;3.88;1.40;;;26.00;99.90;;;;;;5071583;28;20208;-76
2022/06/09 08:24:49;;;;;;;6.93;1.50;;;26.30;99.90;;;;;;5074542;28;20342;-76
2022/06/09 08:27:16;;;;;;;3.90;1.80;;;26.50;99.90;;;;;;5076394;28;20200;-77
2022/06/09 08:29:43;;;;;;;5.22;2.08;;;26.20;99.90;;;;;;5072010;28;20213;-76
2022/06/09 08:32:10;;;;;;;3.15;1.70;;;25.70;99.90;;;;;;5073684;28;20668;-75
2022/06/09 08:34:37;;;;;;;6.47;1.77;;;25.50;99.90;;;;;;5076420;28;20579;-75
2022/06/09 08:37:04;;;;;;;6.65;2.00;;;25.40;99.90;;;;;;5071111;28;20213;-76
2022/06/09 08:39:31;;;;;;;4.88;2.08;;;25.30;99.90;;;;;;5071554;28;20763;-77
2022/06/09 08:42:25;;;;;;;5.32;2.05;;;25.20;99.90;;;;;;5081693;28;20267;-76
2022/06/09 08:45:02;;;;;;;5.93;2.20;;;25.40;99.90;;;;;;5077390;28;20204;-76
2022/06/09 08:47:48;;;;;;;5.72;2.30;;;25.60;99.90;;;;;;5094839;28;20739;-76
2022/06/09 08:50:22;;;;;;;5.00;1.98;;;25.80;99.90;;;;;;5079969;28;20216;-78
2022/06/09 08:52:52;;;;;;;4.60;1.90;;;25.70;99.90;;;;;;5079748;28;20196;-76
2022/06/09 08:55:22;;;;;;;6.95;2.10;;;25.90;99.90;;;;;;5079385;28;20204;-76
2022/06/09 08:57:51;;;;;;;5.82;2.10;;;25.70;99.90;;;;;;5073838;28;20274;-77
2022/06/09 09:00:24;;;;;;;5.63;2.00;;;25.70;99.90;;;;;;5078452;28;20250;-78
2022/06/09 09:02:53;;;;;;;4.93;2.10;;;25.70;99.90;;;;;;5077636;28;20641;-77
2022/06/09 09:05:44;;;;;;;5.53;2.13;;;25.90;99.90;;;;;;5082318;28;20290;-78
2022/06/09 09:08:12;;;;;;;5.28;2.20;;;25.70;99.90;;;;;;5080998;28;20201;-77
2022/06/09 09:10:55;;;;;;;4.63;2.58;;;25.40;99.90;;;;;;5080317;28;20674;-78
2022/06/09 09:13:50;;;;;;;5.35;1.98;;;25.40;99.90;;;;;;5078621;28;20208;-78
2022/06/09 09:16:27;;;;;;;5.30;2.05;;;25.10;99.90;;;;;;5081002;28;20303;-77
2022/06/09 09:19:06;;;;;;;3.88;1.98;;;24.80;99.90;;;;;;5078602;28;20226;-76
2022/06/09 09:22:00;;;;;;;5.97;1.92;;;24.50;99.90;;;;;;5079582;28;20260;-76
2022/06/09 09:24:44;;;;;;;5.65;2.15;;;24.30;99.90;;;;;;5076158;28;20227;-77
2022/06/09 09:27:25;;;;;;;4.25;2.03;;;24.10;99.90;;;;;;5074473;28;20212;-77
2022/06/09 09:29:55;;;;;;;3.78;1.83;;;23.90;99.90;;;;;;5074602;28;20205;-76
2022/06/09 09:32:26;;;;;;;6.88;2.28;;;23.70;99.90;;;;;;5079975;28;20212;-77
2022/06/09 09:34:54;;;;;;;5.05;1.90;;;23.60;99.90;;;;;;5078484;28;20553;-77
2022/06/09 09:37:25;;;;;;;5.50;1.80;;;;;;;;;;5073422;28;20196;-77
2022/06/09 09:40:16;;;;;;;4.00;1.65;;;23.30;99.90;;;;;;5074893;28;20270;-79
2022/06/09 09:42:45;;;;;;;4.20;1.58;;;23.40;99.90;;;;;;5074768;28;20212;-76
2022/06/09 09:45:15;;;;;;;5.93;1.67;;;23.50;99.90;;;;;;5072099;28;20249;-77
2022/06/09 09:47:50;;;;;;;2.95;1.50;;;23.80;99.90;;;;;;5078657;28;20215;-78
2022/06/09 09:50:45;;;;;;;5.72;1.65;;;23.90;99.90;;;;;;5077771;28;20227;-77
2022/06/09 09:53:21;;;;;;;3.88;1.63;;;23.70;99.90;;;;;;5073851;28;20240;-76
2022/06/09 09:55:55;;;;;;;5.28;1.73;;;23.50;99.90;;;;;;5073173;28;20227;-76
2022/06/09 09:58:54;;;;;;;3.92;1.98;;;23.40;99.90;;;;;;5080259;28;20299;-76
2022/06/09 10:08:35;;;;;;;4.93;1.98;;;23.60;99.90;;;;;;5076819;28;20245;-77
2022/06/09 10:10:30;;;;;;;4.82;1.65;;;24.40;99.90;;;;;;5069880;28;20710;-76
2022/06/09 10:13:16;;;;;;;1.90;1.30;;;24.50;99.90;;;;;;5074109;28;20771;-76
2022/06/09 10:16:02;;;;;;;3.97;1.73;;;24.20;99.90;;;;;;5079019;28;20279;-77
2022/06/09 10:18:52;;;;;;;6.07;1.83;;;24.00;99.90;;;;;;5077523;28;20242;-76
2022/06/09 10:21:58;;;;;;;5.93;1.67;;;23.60;99.90;;;;;;5077006;28;20202;-77
2022/06/09 10:24:51;;;;;;;4.70;1.55;;;23.40;99.90;;;;;;5092686;28;20292;-76
2022/06/09 10:27:22;;;;;;;5.53;1.60;;;23.50;99.90;;;;;;5067009;28;20228;-77
2022/06/09 10:30:01;;;;;;;8.00;1.70;;;23.60;99.90;;;;;;5066551;28;20245;-78
2022/06/09 10:32:42;;;;;;;3.80;1.60;;;23.80;99.90;;;;;;5066765;28;20349;-77
2022/06/09 10:35:22;;;;;;;3.67;1.40;;;23.80;99.90;;;;;;5066370;28;20196;-78
2022/06/09 10:38:05;;;;;;;5.25;1.92;;;23.60;99.90;;;;;;5073311;28;20721;-77
2022/06/09 10:40:55;;;;;;;4.30;1.50;;;23.50;99.90;;;;;;5073712;28;20305;-77
2022/06/09 10:43:50;;;;;;;3.90;1.23;;;23.50;99.90;;;;;;5074423;28;20357;-76
2022/06/09 10:46:43;;;;;;;5.93;2.03;;;23.40;99.90;;;;;;5074874;28;20204;-76
2022/06/09 10:55:14;;;;;;;5.75;1.73;;;23.30;99.90;;;;;;5072741;28;20679;-77
2022/06/09 10:57:41;;;;;;;4.47;1.83;;;23.40;99.90;;;;;;5081721;28;20250;-77
2022/06/09 11:00:18;;;;;;;3.58;1.50;;;23.50;99.90;;;;;;5078102;28;20211;-77
2022/06/09 11:02:51;;;;;;;3.17;1.55;;;23.60;99.90;;;;;;5072387;28;20285;-78
2022/06/09 11:05:31;;;;;;;7.43;2.28;;;24.00;99.90;;;;;;5079543;28;20662;-77
2022/06/09 11:08:08;;;;;;;3.90;1.65;;;23.90;99.90;;;;;;5077986;28;20761;-78
2022/06/09 11:11:01;;;;;;;5.07;1.50;;;24.10;99.90;;;;;;5076228;28;20620;-79
2022/06/09 11:13:49;;;;;;;6.32;1.70;;;24.30;99.90;;;;;;5078916;28;20816;-77
2022/06/09 11:16:47;;;;;;;5.70;1.90;;;24.00;99.90;;;;;;5079988;28;20584;-78
2022/06/09 11:19:24;;;;;;;4.88;1.58;;;23.70;99.90;;;;;;5075291;28;20205;-78
2022/06/09 11:22:01;;;;;;;5.15;1.60;;;23.50;99.90;;;;;;5076898;28;20254;-79
2022/06/09 11:24:39;;;;;;;4.28;1.63;;;23.40;99.90;;;;;;5078846;28;20227;-78
2022/06/09 11:27:38;;;;;;;2.92;1.20;;;23.50;99.90;;;;;;5081862;28;20940;-78
2022/06/09 11:30:18;;;;;;;5.45;1.25;;;23.60;99.90;;;;;;5077215;28;20253;-77
2022/06/09 11:32:50;;;;;;;3.65;1.30;;;23.70;99.90;;;;;;5078165;28;20596;-78
2022/06/09 11:35:26;;;;;;;1.98;1.15;;;23.70;99.90;;;;;;5078677;28;20635;-78
2022/06/09 11:38:01;;;;;;;4.30;1.30;;;23.70;99.90;;;;;;5077758;28;20264;-78
2022/06/09 11:40:41;;;;;;;3.65;1.25;;;23.70;99.90;;;;;;5077861;28;20219;-77
2022/06/09 11:43:38;;;;;;;4.90;1.27;;;23.70;99.90;;;;;;5079298;28;20262;-77
2022/06/09 11:46:15;;;;;;;6.00;1.40;;;23.50;99.90;;;;;;5084787;28;20208;-78
2022/06/09 11:48:49;;;;;;;5.47;1.50;;;23.40;99.90;;;;;;5076830;28;20248;-78
2022/06/09 11:51:19;;;;;;;5.57;1.70;;;23.10;99.90;;;;;;5080667;28;20219;-78
2022/06/09 11:53:50;;;;;;;4.70;1.70;;;22.90;99.90;;;;;;5077995;28;20282;-79
2022/06/09 11:56:36;;;;;;;4.90;1.50;;;22.80;99.90;;;;;;5077461;28;20223;-78
2022/06/09 11:59:15;;;;;;;8.15;1.70;;;22.80;99.90;;;;;;5079946;28;20206;-77
2022/06/09 12:02:20;;;;;;;6.00;1.50;;;23.00;99.90;;;;;;5075224;28;20266;-77
2022/06/09 12:05:19;;;;;;;4.00;1.67;;;23.30;99.90;;;;;;5076670;28;20654;-78
2022/06/09 12:08:09;;;;;;;7.35;1.83;;;23.60;99.90;;;;;;5081818;28;20211;-78
2022/06/09 12:10:53;;;;;;;4.57;1.83;;;23.90;99.90;;;;;;5079906;28;20227;-79
2022/06/09 12:13:36;;;;;;;5.75;1.60;;;24.00;99.90;;;;;;5074859;28;20200;-78
2022/06/09 12:16:25;;;;;;;6.72;2.33;;;23.90;99.90;;;;;;5075414;28;20264;-79
2022/06/09 12:19:14;;;;;;;8.63;2.05;;;23.70;99.90;;;;;;5073323;28;20287;-78
2022/06/09 12:21:44;;;;;;;6.15;1.65;;;23.60;99.90;;;;;;5068422;28;20212;-79
2022/06/09 12:24:13;;;;;;;5.18;1.77;;;23.50;99.90;;;;;;5069029;28;20231;-77
2022/06/09 12:26:42;;;;;;;5.63;1.50;;;23.60;99.90;;;;;;5074983;28;20246;-79
2022/06/09 12:29:20;;;;;;;5.70;1.60;;;23.80;99.90;;;;;;5079347;28;20247;-81
2022/06/09 12:32:09;;;;;;;4.07;1.52;;;24.00;99.90;;;;;;5075520;28;20227;-80
2022/06/09 12:34:50;;;;;;;4.97;1.63;;;24.10;99.90;;;;;;5076150;28;20612;-79
2022/06/09 12:37:25;;;;;;;6.45;1.50;;;24.30;99.90;;;;;;5081939;28;20671;-80
2022/06/09 12:40:06;;;;;;;4.72;1.58;;;24.40;99.90;;;;;;5077385;28;20215;-78
2022/06/09 12:42:44;;;;;;;4.00;1.63;;;24.50;99.90;;;;;;5076779;28;20287;-79
2022/06/09 12:45:14;;;;;;;8.55;1.80;;;24.40;99.90;;;;;;5077655;28;20204;-79
2022/06/09 12:47:59;;;;;;;4.72;1.58;;;24.50;99.90;;;;;;5079380;28;20199;-79
2022/06/09 12:50:42;;;;;;;2.85;1.35;;;24.60;99.90;;;;;;5076680;28;20208;-79
2022/06/09 12:53:19;;;;;;;5.97;1.48;;;24.70;99.90;;;;;;5079504;28;20235;-78
2022/06/09 12:55:59;;;;;;;5.45;1.48;;;24.90;99.90;;;;;;5079975;28;20220;-79
2022/06/09 12:58:35;;;;;;;4.90;1.98;;;24.80;99.90;;;;;;5081663;28;20281;-78
2022/06/09 13:01:06;;;;;;;4.00;2.03;;;24.70;99.90;;;;;;5082194;28;20248;-78
2022/06/09 13:03:40;;;;;;;7.35;1.92;;;24.50;99.90;;;;;;5074428;28;20201;-77
2022/06/09 13:06:25;;;;;;;3.28;1.60;;;24.30;99.90;;;;;;5077210;28;20266;-78
2022/06/09 13:08:59;;;;;;;3.75;1.30;;;24.20;99.90;;;;;;5077640;28;20216;-78
2022/06/09 13:14:27;;;;;;;5.97;1.83;;;24.30;99.90;;;;;;5076550;28;20283;-79
2022/06/09 13:17:00;;;;;;;4.15;1.40;;;24.30;99.90;;;;;;5077157;28;20705;-78
2022/06/09 13:19:29;;;;;;;6.60;2.20;;;24.30;99.90;;;;;;5076795;28;20593;-79
2022/06/09 13:22:01;;;;;;;4.72;1.70;;;24.50;99.90;;;;;;5080510;28;20208;-77
2022/06/09 13:24:35;;;;;;;4.85;1.45;;;24.50;99.90;;;;;;5080681;28;20286;-79
2022/06/09 13:27:14;;;;;;;5.53;1.85;;;24.70;99.90;;;;;;5076783;28;20224;-79
2022/06/09 13:29:56;;;;;;;7.47;2.67;;;24.80;99.90;;;;;;5080595;28;20235;-78
2022/06/09 13:32:23;;;;;;;9.25;2.03;;;24.80;99.90;;;;;;5079335;28;20351;-77
2022/06/09 13:34:53;;;;;;;3.95;1.48;;;24.80;99.90;;;;;;5079148;28;20250;-79